Scroll down
FLIGHT INFORMATION
Federal Express (FedEx)

FDX383

At Arrival Gate

KMEM
 KAUS
DATE: 2021-03-21
GATE:  -
GATE DEPARTURE: 00:31
TAKEOFF: 00:53
DATE: 2021-03-21
GATE:  -
LANDING: 02:10
GATE ARRIVAL: 02:22
FLIGHT DATA
Crew: 
Speed: 
494 kts
Altitude: 
36,008 ft
Stage Length: 
485.6 nm
Block Time: 
1.8 hrs
Flight Time: 
1.3 hrs
Fuel Used: 
25,518 lb
Cleared Route: KMEM CHETO MUDHO NIXOE PEPOC CHLDR ANSWA LIT TXK WINDU GABOO SEWZY VADRR MGTEC JEDYE KAUS
TRACK DATA
50,000 ft 1,000 kts
AIRCRAFT INFO AND CUMULATIVE STATS
Aircraft Type: 
B77LF
Registration: 
SELCAL: 
MSN/LN: 
37731 / 1601
Total Flights: 
4
Total Block Time: 
7.9 hrs
Total Flight Time: 
6.5 hrs
Total Fuel Used: 
116,974 lb
DATALINK LOG | Newest first | Current as of: 2022-12-07 06:00:11
LABEL SEQUENCE CONTENT Dn/Up
QD224002:22 19.7▼ Dn
QC112902:10▼ Dn
QB541300:53▼ Dn
QA315100:31 45.2▼ Dn
A31838NO MATCHING FLIGHT DATA AVAILABLE FROM ANSP▲ Up
B31838KMEM KAUS FDX383 N860FD ▼ Dn
5U1352KAUS 210402Z 10005KT 10SM SKC 21/06 A3018▲ Up
5U1352KMEM 210402Z 10004KT 10SM SKC 17/03 A3029▲ Up
5S1333KMEM KAUS▼ Dn
A30332NO MATCHING FLIGHT DATA AVAILABLE FROM ANSP▲ Up
Q00222[LINK ACK]▲ Up
Q00222[LINK TEST]▼ Dn


AIRCRAFT HISTORY
FLIGHT DATE FLIGHT NO. ORIGIN DESTINATION CLEARED ROUTE BLOCK TIME FLIGHT TIME FUEL USED PILOT
2022-01-05FDX9860KRNO KOAK KRNO MRLET KOAK0.8 hrs0.6 hrs9,269 lbAllan Burek
2021-10-29FDX519KMEM KRNO KMEM BEEAL PRYMD HIVUS STVVV ZUMIT FOXOM KK39E KD48W KU51O MVA KRNO3.6 hrs3.4 hrs56,866 lbChemtrails
2021-03-30FDX330KAUS KMEM KAUS ZENZI LFK ELD KMEM1.6 hrs1.3 hrs25,320 lbCharles Harris
2021-03-21FDX383KMEM KAUS KMEM CHETO MUDHO NIXOE PEPOC CHLDR ANSWA LIT TXK WINDU GABOO SEWZY VADRR MGTEC JEDYE KAUS1.8 hrs1.3 hrs25,518 lbJohn Binner